Main page
METAR-TAF:

METAR-TAF

Airports :

Cheyenne Regional Airport

Cheyenne, Wyoming, United States

latitude: 41-09-28N, longitude: 104-48-25W, elevation: 6153 ft

Current weather observation

The report was made 58 minutes ago, at 13:53 UTC
Wind 5 mph from the Southwest
Temperature 28°F
Humidity 80%
Pressure 30.28 in. Hg
Visibility: 10 miles
Clear sky

METAR: KCYS 211353Z 23004KT 10SM CLR M02/M05 A3028 RMK AO2 SLP292 T10221050

Time: 08:51 (14:51 UTC)

Forecast

The report was made 3 hours and 31 minutes ago, at 11:20 UTC
Forecast valid from 21 at 12 UTC to 22 at 12 UTC
Wind 7 mph from the West/Southwest
Visibility: 6 miles
Clear sky
From 21 at 1800 UTC
Wind 14 mph from the South/Southwest with gusts up to 23 mph
Visibility: 6 miles
Clear sky
From 22 at 0200 UTC
Wind 9 mph from the Southwest
Visibility: 6 miles
Broken clouds at a height of 25000 ft

TAF: KCYS 211120Z 2112/2212 24006KT P6SM SKC FM211800 21012G20KT P6SM SKC FM220200 22008KT P6SM BKN250

Weather observations and forecasts of more than 4000 airports (METAR and TAF reports).

The available stations are represented by yellow and red dots on the map.

Hover mouse over dot to see the name of the station.

Then click to see weather observations and forecasts.

To change the map : click on the green buttons with a black cross to zoom in, on the green button with a dash to zoom out, or on the green arrows for adjacent maps.


METAR-TAF: